No.10 Hasshomaru — JD2992 — position and weather

sailwx.info

Track history (hours):
 
Tides and Currents Weather Stations Pressure Air Temp Water Temp Dewpoint Dewpoint Depression Visibility Wind Speed Wind Dir Waves Ship Positions

No.10 Hasshomaru

Last reported at 2017-Jan-04 09:33 UTC. Time now 2017-Jan-18 05:54 UTC.
Position N 35°07' E 139°45'.
Warning: this ship's position is 13 days out of date.

Length 105 m; draft 6.6 m.

Type: Tanker. MMSI: 431001112.

Date/timePositionNaut miles runAvg speedWind from/ knotsBaromVisibWave heightAir tempDewpointWater temp
2017-Jan-04 09:33N 35°07' E 139°45'1211.8
2017-Jan-04 08:34N 35°18' E 139°44'7 6.6
2017-Jan-04 07:31N 35°24' E 139°40'0 0.0
2017-Jan-04 06:31N 35°24' E 139°40'0 0.0
2017-Jan-04 05:31N 35°24' E 139°40'0 0.0
2017-Jan-04 04:31N 35°24' E 139°40'0 0.0
2017-Jan-04 03:31N 35°24' E 139°40'0 0.0
2017-Jan-04 02:31N 35°24' E 139°40'0 0.0
2017-Jan-04 01:25N 35°24' E 139°40'0 0.0
2017-Jan-04 00:31N 35°24' E 139°40'0 0.0
2017-Jan-03 23:31N 35°24' E 139°40'5 4.8
2017-Jan-03 22:33N 35°22' E 139°45'0 0.0
2017-Jan-03 21:32N 35°22' E 139°45'0 0.0
2017-Jan-03 20:32N 35°22' E 139°45'0 0.0
2017-Jan-03 19:32N 35°22' E 139°44'0 0.1
2017-Jan-03 18:32N 35°22' E 139°44'0 0.0
2017-Jan-03 17:32N 35°22' E 139°44'0 0.0
2017-Jan-03 16:32N 35°22' E 139°44'0 0.0
2017-Jan-03 15:32N 35°22' E 139°44'0 0.0
2017-Jan-03 14:32N 35°22' E 139°44'0 0.0
2017-Jan-03 13:32N 35°22' E 139°44'0 0.0
2017-Jan-03 12:32N 35°22' E 139°44'0 0.0
2017-Jan-03 11:32N 35°22' E 139°44'0 0.0
2017-Jan-03 10:32N 35°22' E 139°44'0 0.0
2017-Jan-03 09:32N 35°22' E 139°44'0 0.0
2017-Jan-03 08:32N 35°22' E 139°44'0 0.0
2017-Jan-03 07:32N 35°22' E 139°44'7 7.2
2017-Jan-03 06:33N 35°29' E 139°47'2 2.1
2017-Jan-03 05:32N 35°31' E 139°46'0 0.0
2017-Jan-03 04:32N 35°31' E 139°46'0 0.0
2017-Jan-03 03:32N 35°31' E 139°46'0 0.0
2017-Jan-03 02:32N 35°31' E 139°46'2 2.0
2017-Jan-03 01:33N 35°30' E 139°44'7 7.1
2017-Jan-03 00:33N 35°23' E 139°45'0 0.0
2017-Jan-02 23:30N 35°23' E 139°45'0 0.1
2017-Jan-02 22:33N 35°23' E 139°45'0 0.1
2017-Jan-02 21:33N 35°23' E 139°45'4 3.5
2017-Jan-02 20:33N 35°20' E 139°43'1212.1
2017-Jan-02 19:33N 35°08' E 139°46'  
Track history (hours):
 
Tides and Currents Weather Stations Pressure Air Temp Water Temp Dewpoint Dewpoint Depression Visibility Wind Speed Wind Dir Waves Ship Positions

No.10 Hasshomaru

Last reported at 2017-Jan-04 09:33 UTC. Time now 2017-Jan-18 05:54 UTC.
Position N 35°07' E 139°45'.
Warning: this ship's position is 13 days out of date.

Length 105 m; draft 6.6 m.

Type: Tanker. MMSI: 431001112.

Date/timePositionNaut miles runAvg speedWind from/ knotsBaromVisibWave heightAir tempDewpointWater temp
2017-Jan-04 09:33N 35°07' E 139°45'1211.8
2017-Jan-04 08:34N 35°18' E 139°44'7 6.6
2017-Jan-04 07:31N 35°24' E 139°40'0 0.0
2017-Jan-04 06:31N 35°24' E 139°40'0 0.0
2017-Jan-04 05:31N 35°24' E 139°40'0 0.0
2017-Jan-04 04:31N 35°24' E 139°40'0 0.0
2017-Jan-04 03:31N 35°24' E 139°40'0 0.0
2017-Jan-04 02:31N 35°24' E 139°40'0 0.0
2017-Jan-04 01:25N 35°24' E 139°40'0 0.0
2017-Jan-04 00:31N 35°24' E 139°40'0 0.0
2017-Jan-03 23:31N 35°24' E 139°40'5 4.8
2017-Jan-03 22:33N 35°22' E 139°45'0 0.0
2017-Jan-03 21:32N 35°22' E 139°45'0 0.0
2017-Jan-03 20:32N 35°22' E 139°45'0 0.0
2017-Jan-03 19:32N 35°22' E 139°44'0 0.1
2017-Jan-03 18:32N 35°22' E 139°44'0 0.0
2017-Jan-03 17:32N 35°22' E 139°44'0 0.0
2017-Jan-03 16:32N 35°22' E 139°44'0 0.0
2017-Jan-03 15:32N 35°22' E 139°44'0 0.0
2017-Jan-03 14:32N 35°22' E 139°44'0 0.0
2017-Jan-03 13:32N 35°22' E 139°44'0 0.0
2017-Jan-03 12:32N 35°22' E 139°44'0 0.0
2017-Jan-03 11:32N 35°22' E 139°44'0 0.0
2017-Jan-03 10:32N 35°22' E 139°44'0 0.0
2017-Jan-03 09:32N 35°22' E 139°44'0 0.0
2017-Jan-03 08:32N 35°22' E 139°44'0 0.0
2017-Jan-03 07:32N 35°22' E 139°44'7 7.2
2017-Jan-03 06:33N 35°29' E 139°47'2 2.1
2017-Jan-03 05:32N 35°31' E 139°46'0 0.0
2017-Jan-03 04:32N 35°31' E 139°46'0 0.0
2017-Jan-03 03:32N 35°31' E 139°46'0 0.0
2017-Jan-03 02:32N 35°31' E 139°46'2 2.0
2017-Jan-03 01:33N 35°30' E 139°44'7 7.1
2017-Jan-03 00:33N 35°23' E 139°45'0 0.0
2017-Jan-02 23:30N 35°23' E 139°45'0 0.1
2017-Jan-02 22:33N 35°23' E 139°45'0 0.1
2017-Jan-02 21:33N 35°23' E 139°45'4 3.5
2017-Jan-02 20:33N 35°20' E 139°43'1212.1
2017-Jan-02 19:33N 35°08' E 139°46'  

Dump ship's entire track history